Time;durP1;ratioP1;P1;durP2;ratioP2;P2;SDS_P1;SDS_P2;PMS_P1;PMS_P2;Temp;Humidity;BMP_temperature;BMP_pressure;BME280_temperature;BME280_humidity;BME280_pressure;Samples;Min_cycle;Max_cycle;Signal;HPM_P1;HPM_P2
2024/04/06 00:01:57;;;;;;;4.15;1.33;;;15.00;99.90;;;;;;5061110;28;21412;-84
2024/04/06 00:04:23;;;;;;;4.50;1.70;;;15.00;99.90;;;;;;5060732;28;20023;-86
2024/04/06 00:06:49;;;;;;;3.13;1.35;;;15.00;99.90;;;;;;5060281;28;20742;-85
2024/04/06 00:09:15;;;;;;;3.45;1.25;;;15.00;99.90;;;;;;5059733;28;20032;-84
2024/04/06 00:11:40;;;;;;;3.08;1.40;;;15.10;99.90;;;;;;5058975;28;20025;-84
2024/04/06 00:14:06;;;;;;;3.30;1.40;;;15.10;99.90;;;;;;5058904;28;20032;-88
2024/04/06 00:16:31;;;;;;;3.83;1.80;;;15.10;99.90;;;;;;5059094;28;20028;-84
2024/04/06 00:18:57;;;;;;;5.28;1.75;;;15.10;99.90;;;;;;5061298;28;20100;-86
2024/04/06 00:21:24;;;;;;;3.83;1.20;;;15.10;99.90;;;;;;5060606;28;20074;-84
2024/04/06 00:23:49;;;;;;;4.93;1.50;;;15.10;99.90;;;;;;5060750;28;20055;-84
2024/04/06 00:26:15;;;;;;;5.70;1.60;;;15.10;99.90;;;;;;5060024;28;20493;-84
2024/04/06 00:28:42;;;;;;;2.92;1.23;;;15.10;99.90;;;;;;5060619;28;20040;-84
2024/04/06 00:31:07;;;;;;;2.70;1.20;;;15.00;99.90;;;;;;5061182;28;20119;-84
2024/04/06 00:33:33;;;;;;;2.30;1.20;;;15.00;99.90;;;;;;5061020;28;20092;-84
2024/04/06 00:35:58;;;;;;;2.38;1.27;;;15.00;99.90;;;;;;5061618;28;20881;-86
2024/04/06 00:38:24;;;;;;;1.65;1.17;;;14.90;99.90;;;;;;5061204;28;20053;-84
2024/04/06 00:40:49;;;;;;;3.13;1.40;;;14.90;99.90;;;;;;5059189;28;20025;-84
2024/04/06 00:43:15;;;;;;;3.88;1.33;;;14.80;99.90;;;;;;5061475;28;20055;-85
2024/04/06 00:45:42;;;;;;;5.35;1.13;;;14.80;99.90;;;;;;5059422;28;20031;-84
2024/04/06 00:48:08;;;;;;;3.47;1.38;;;14.70;99.90;;;;;;5061185;28;20037;-86
2024/04/06 00:50:34;;;;;;;3.00;1.40;;;14.70;99.90;;;;;;5059696;28;20740;-85
2024/04/06 00:53:00;;;;;;;6.00;1.55;;;14.60;99.90;;;;;;5059807;28;20036;-84
2024/04/06 00:55:25;;;;;;;3.53;1.38;;;14.60;99.90;;;;;;5060979;28;20037;-85
2024/04/06 00:57:51;;;;;;;4.00;1.60;;;14.60;99.90;;;;;;5060170;28;20088;-84
2024/04/06 01:00:17;;;;;;;4.10;1.45;;;14.60;99.90;;;;;;5059818;28;20033;-85
2024/04/06 01:02:43;;;;;;;4.88;1.50;;;14.50;99.90;;;;;;5060416;28;20029;-85
2024/04/06 01:05:08;;;;;;;3.92;1.75;;;14.50;99.90;;;;;;5058958;28;20033;-85
2024/04/06 01:07:34;;;;;;;4.65;1.40;;;14.40;99.90;;;;;;5060327;28;20025;-84
2024/04/06 01:10:00;;;;;;;2.85;1.63;;;14.40;99.90;;;;;;5059544;28;20032;-84
2024/04/06 01:12:26;;;;;;;3.33;1.30;;;14.30;99.90;;;;;;5058829;28;20066;-84
2024/04/06 01:14:51;;;;;;;8.43;1.50;;;14.30;99.90;;;;;;5059269;28;20037;-85
2024/04/06 01:17:17;;;;;;;3.55;1.60;;;14.30;99.90;;;;;;5060480;28;20538;-85
2024/04/06 01:19:42;;;;;;;3.70;1.60;;;14.20;99.90;;;;;;5060014;28;20081;-84
2024/04/06 01:22:08;;;;;;;3.72;1.48;;;14.20;99.90;;;;;;5060184;28;20032;-86
2024/04/06 01:24:33;;;;;;;5.93;1.50;;;14.20;99.90;;;;;;5057293;28;20119;-85
2024/04/06 01:26:59;;;;;;;3.67;1.52;;;14.20;99.90;;;;;;5057939;28;21240;-84
2024/04/06 01:29:27;;;;;;;3.60;1.40;;;14.20;99.90;;;;;;5056444;28;20476;-84
2024/04/06 01:31:53;;;;;;;3.00;1.40;;;14.20;99.90;;;;;;5059091;28;20144;-84
2024/04/06 01:34:19;;;;;;;4.45;1.30;;;14.20;99.90;;;;;;5058832;28;20124;-85
2024/04/06 01:36:45;;;;;;;2.42;1.30;;;14.20;99.90;;;;;;5056691;28;20080;-84
2024/04/06 01:39:13;;;;;;;3.10;1.50;;;14.20;99.90;;;;;;5059225;28;20036;-84
2024/04/06 01:41:47;;;;;;;5.30;1.38;;;14.20;99.90;;;;;;5059060;28;20068;-85
2024/04/06 01:44:13;;;;;;;3.65;1.38;;;14.20;99.90;;;;;;5060246;28;20024;-86
2024/04/06 01:46:38;;;;;;;4.03;1.50;;;14.20;99.90;;;;;;5060286;28;20042;-84
2024/04/06 01:49:04;;;;;;;2.88;1.20;;;14.30;99.90;;;;;;5061470;28;20084;-83
2024/04/06 01:51:30;;;;;;;5.75;1.48;;;14.30;99.90;;;;;;5062657;28;20025;-84
2024/04/06 01:53:55;;;;;;;2.42;1.10;;;14.30;99.90;;;;;;5061338;28;20055;-84
2024/04/06 01:56:21;;;;;;;3.88;1.42;;;14.30;99.90;;;;;;5058123;28;20031;-85
2024/04/06 01:58:46;;;;;;;2.58;1.20;;;14.40;99.90;;;;;;5058807;28;20167;-84
2024/04/06 02:01:13;;;;;;;7.50;1.95;;;14.40;99.90;;;;;;5058499;28;20052;-84
2024/04/06 02:03:39;;;;;;;4.40;1.50;;;14.40;99.90;;;;;;5058265;28;20075;-84
2024/04/06 02:06:06;;;;;;;4.05;1.63;;;14.40;99.90;;;;;;5057411;28;20142;-84
2024/04/06 02:08:31;;;;;;;8.70;1.55;;;14.30;99.90;;;;;;5058282;28;21148;-85
2024/04/06 02:10:57;;;;;;;2.88;1.40;;;14.30;99.90;;;;;;5057677;28;20032;-84
2024/04/06 02:13:22;;;;;;;4.65;1.35;;;14.20;99.90;;;;;;5056752;28;20079;-84
2024/04/06 02:15:48;;;;;;;4.28;1.30;;;14.20;99.90;;;;;;5057259;28;20040;-84
2024/04/06 02:18:13;;;;;;;2.40;1.30;;;14.20;99.90;;;;;;5056835;28;20089;-86
2024/04/06 02:20:42;;;;;;;3.53;1.65;;;14.10;99.90;;;;;;5058187;28;20025;-84
2024/04/06 02:23:07;;;;;;;3.08;1.38;;;14.10;99.90;;;;;;5057880;28;20059;-84
2024/04/06 02:25:33;;;;;;;4.30;1.50;;;14.10;99.90;;;;;;5058057;28;20040;-84
2024/04/06 02:27:59;;;;;;;3.75;1.35;;;14.10;99.90;;;;;;5057997;28;20040;-84
2024/04/06 02:30:25;;;;;;;5.07;1.52;;;14.10;99.90;;;;;;5058706;28;20025;-85
2024/04/06 02:32:50;;;;;;;4.60;1.80;;;14.10;99.90;;;;;;5060751;28;20040;-84
2024/04/06 02:35:16;;;;;;;4.40;1.63;;;14.00;99.90;;;;;;5061282;28;20048;-86
2024/04/06 02:37:45;;;;;;;3.25;1.40;;;14.00;99.90;;;;;;5060808;28;20029;-86
2024/04/06 02:40:11;;;;;;;3.83;2.00;;;14.00;99.90;;;;;;5060073;28;20029;-84
2024/04/06 02:42:37;;;;;;;3.03;2.03;;;13.90;99.90;;;;;;5058348;28;20039;-84
2024/04/06 02:45:03;;;;;;;5.80;2.35;;;13.90;99.90;;;;;;5058008;28;20043;-84
2024/04/06 02:47:29;;;;;;;2.70;1.48;;;13.80;99.90;;;;;;5058319;28;20059;-84
2024/04/06 02:49:55;;;;;;;2.83;1.45;;;13.80;99.90;;;;;;5057504;28;20082;-85
2024/04/06 02:52:21;;;;;;;3.10;1.42;;;13.70;99.90;;;;;;5059750;28;20056;-84
2024/04/06 02:54:48;;;;;;;3.92;1.58;;;13.70;99.90;;;;;;5056209;28;20064;-84
2024/04/06 02:57:13;;;;;;;3.42;1.85;;;13.70;99.90;;;;;;5059179;28;20007;-84
2024/04/06 02:59:39;;;;;;;5.82;1.92;;;13.60;99.90;;;;;;5059705;28;20028;-84
2024/04/06 03:02:05;;;;;;;3.92;1.42;;;13.60;99.90;;;;;;5057739;28;20029;-85
2024/04/06 03:04:31;;;;;;;2.33;1.40;;;13.60;99.90;;;;;;5059163;28;20106;-86
2024/04/06 03:06:56;;;;;;;6.45;1.52;;;13.60;99.90;;;;;;5056260;28;20033;-84
2024/04/06 03:09:22;;;;;;;2.72;1.35;;;13.50;99.90;;;;;;5057990;28;20062;-84
2024/04/06 03:11:48;;;;;;;5.70;1.42;;;13.60;99.90;;;;;;5055390;28;20037;-84
2024/04/06 03:14:13;;;;;;;2.92;1.50;;;13.50;99.90;;;;;;5056859;28;20037;-84
2024/04/06 03:16:39;;;;;;;3.53;1.40;;;13.50;99.90;;;;;;5055489;28;20029;-84
2024/04/06 03:19:04;;;;;;;2.53;1.50;;;13.50;99.90;;;;;;5057695;28;20042;-85
2024/04/06 03:21:30;;;;;;;3.30;1.48;;;13.40;99.90;;;;;;5055415;28;20032;-84
2024/04/06 03:23:56;;;;;;;5.07;1.80;;;13.40;99.90;;;;;;5058007;28;20170;-84
2024/04/06 03:26:21;;;;;;;5.70;1.88;;;13.40;99.90;;;;;;5058540;28;20082;-84
2024/04/06 03:28:48;;;;;;;3.15;1.30;;;13.30;99.90;;;;;;5058560;28;20025;-84
2024/04/06 03:31:14;;;;;;;4.05;1.63;;;13.30;99.90;;;;;;5058627;28;20398;-84
2024/04/06 03:33:39;;;;;;;6.03;1.73;;;13.20;99.90;;;;;;5058138;28;20028;-86
2024/04/06 03:36:05;;;;;;;4.55;1.67;;;13.20;99.90;;;;;;5058113;28;20277;-86
2024/04/06 03:38:31;;;;;;;4.57;1.63;;;13.20;99.90;;;;;;5059627;28;20032;-84
2024/04/06 03:40:56;;;;;;;2.97;1.50;;;13.20;99.90;;;;;;5058780;28;20028;-86
2024/04/06 03:43:22;;;;;;;4.78;1.88;;;13.20;99.90;;;;;;5059554;28;20033;-84
2024/04/06 03:45:48;;;;;;;8.77;1.65;;;13.20;99.90;;;;;;5060108;28;20045;-84
2024/04/06 03:48:13;;;;;;;6.50;2.40;;;13.20;99.90;;;;;;5058594;28;20032;-84
2024/04/06 03:50:39;;;;;;;5.28;1.73;;;13.10;99.90;;;;;;5058449;28;20020;-85
2024/04/06 03:53:05;;;;;;;5.28;1.63;;;13.10;99.90;;;;;;5058282;28;20063;-85
2024/04/06 03:55:30;;;;;;;3.70;1.92;;;13.00;99.90;;;;;;5057426;28;20025;-86
2024/04/06 03:57:56;;;;;;;5.45;1.90;;;13.00;99.90;;;;;;5058252;28;20028;-84
2024/04/06 04:00:22;;;;;;;6.22;1.80;;;13.00;99.90;;;;;;5060972;28;20084;-84
2024/04/06 04:02:48;;;;;;;5.88;1.90;;;12.90;99.90;;;;;;5062647;28;20047;-84
2024/04/06 04:05:13;;;;;;;8.25;2.33;;;12.90;99.90;;;;;;5060275;28;20163;-84
2024/04/06 04:07:39;;;;;;;5.72;1.70;;;12.80;99.90;;;;;;5060258;28;20032;-85
2024/04/06 04:10:06;;;;;;;6.55;2.00;;;12.70;99.90;;;;;;5061158;28;20036;-84
2024/04/06 04:12:33;;;;;;;2.47;1.58;;;12.60;99.90;;;;;;5063285;28;20036;-84
2024/04/06 04:15:02;;;;;;;4.45;1.63;;;12.50;99.90;;;;;;5063983;28;20056;-84
2024/04/06 04:17:28;;;;;;;4.35;1.70;;;12.40;99.90;;;;;;5063152;28;20088;-85
2024/04/06 04:19:53;;;;;;;5.63;1.63;;;12.40;99.90;;;;;;5060759;28;20464;-85
2024/04/06 04:22:19;;;;;;;3.35;1.70;;;12.30;99.90;;;;;;5060726;28;20023;-86
2024/04/06 04:24:45;;;;;;;3.10;1.80;;;12.30;99.90;;;;;;5061025;28;20039;-85
2024/04/06 04:27:11;;;;;;;5.22;1.65;;;12.20;99.90;;;;;;5061953;28;20028;-86
2024/04/06 04:29:37;;;;;;;6.47;1.83;;;12.20;99.90;;;;;;5062371;28;20040;-84
2024/04/06 04:32:03;;;;;;;4.95;1.83;;;12.10;99.90;;;;;;5059519;28;20098;-84
2024/04/06 04:34:29;;;;;;;2.75;1.50;;;12.10;99.90;;;;;;5058005;28;20127;-84
2024/04/06 04:36:55;;;;;;;5.50;1.83;;;12.10;99.90;;;;;;5057219;28;20377;-86
2024/04/06 04:39:21;;;;;;;2.65;1.40;;;12.10;99.90;;;;;;5057147;28;20864;-86
2024/04/06 04:41:46;;;;;;;5.60;2.05;;;12.00;99.90;;;;;;5056482;28;20037;-85
2024/04/06 04:44:12;;;;;;;5.10;1.80;;;12.00;99.90;;;;;;5056551;28;20044;-84
2024/04/06 04:46:37;;;;;;;3.65;1.48;;;12.00;99.90;;;;;;5057532;28;20041;-85
2024/04/06 04:49:03;;;;;;;1.88;1.25;;;12.00;99.90;;;;;;5062204;28;20035;-84
2024/04/06 04:51:28;;;;;;;6.85;1.50;;;12.00;99.90;;;;;;5062014;28;20106;-84
2024/04/06 04:53:55;;;;;;;3.10;1.42;;;12.00;99.90;;;;;;5060502;28;20715;-85
2024/04/06 04:56:21;;;;;;;3.78;1.50;;;12.00;99.90;;;;;;5061656;28;20119;-84
2024/04/06 04:58:47;;;;;;;2.65;1.55;;;12.00;99.90;;;;;;5060210;28;20082;-84
2024/04/06 05:01:14;;;;;;;6.30;1.88;;;12.00;99.90;;;;;;5057685;28;20029;-84
2024/04/06 05:03:39;;;;;;;4.60;1.65;;;12.00;99.90;;;;;;5062141;28;20029;-84
2024/04/06 05:06:06;;;;;;;3.58;1.58;;;12.00;99.90;;;;;;5056734;28;20035;-85
2024/04/06 05:08:35;;;;;;;6.15;1.92;;;12.00;99.90;;;;;;5059120;28;20718;-84
2024/04/06 05:11:01;;;;;;;6.03;1.67;;;12.10;99.90;;;;;;5056145;28;20049;-85
2024/04/06 05:13:27;;;;;;;4.93;1.48;;;12.10;99.90;;;;;;5057774;28;20066;-85
2024/04/06 05:15:54;;;;;;;5.40;1.70;;;12.10;99.90;;;;;;5055946;28;20127;-85
2024/04/06 05:18:21;;;;;;;4.85;1.60;;;12.10;99.90;;;;;;5055809;28;20122;-86
2024/04/06 05:20:58;;;;;;;4.43;1.55;;;12.10;99.90;;;;;;5057692;28;20031;-85
2024/04/06 05:23:24;;;;;;;6.28;1.30;;;12.10;99.90;;;;;;5058351;28;20040;-85
2024/04/06 05:25:51;;;;;;;3.47;1.77;;;12.20;99.90;;;;;;5056832;28;20031;-85
2024/04/06 05:28:17;;;;;;;5.53;1.60;;;12.20;99.90;;;;;;5059272;28;20257;-85
2024/04/06 05:30:44;;;;;;;5.28;1.50;;;12.10;99.90;;;;;;5058090;28;20025;-85
2024/04/06 05:33:10;;;;;;;3.15;1.52;;;12.20;99.90;;;;;;5055822;28;20039;-85
2024/04/06 05:35:35;;;;;;;5.82;1.42;;;12.20;99.90;;;;;;5055552;28;20028;-85
2024/04/06 05:38:01;;;;;;;3.55;1.40;;;12.20;99.90;;;;;;5058466;28;20043;-85
2024/04/06 05:40:26;;;;;;;3.15;1.45;;;12.20;99.90;;;;;;5058605;28;20513;-86
2024/04/06 05:42:52;;;;;;;4.30;1.40;;;12.20;99.90;;;;;;5057477;28;20033;-87
2024/04/06 05:45:18;;;;;;;3.63;1.30;;;12.20;99.90;;;;;;5056123;28;20583;-85
2024/04/06 05:47:43;;;;;;;6.97;1.70;;;12.20;99.90;;;;;;5057840;28;20119;-85
2024/04/06 05:50:09;;;;;;;3.28;1.50;;;12.30;99.90;;;;;;5056073;28;20798;-86
2024/04/06 05:52:34;;;;;;;3.42;1.73;;;12.30;99.90;;;;;;5057448;28;20417;-86
2024/04/06 05:55:02;;;;;;;2.70;1.30;;;12.40;99.90;;;;;;5057233;28;20035;-88
2024/04/06 05:57:28;;;;;;;1.90;1.30;;;12.40;99.90;;;;;;5057517;28;20070;-86
2024/04/06 05:59:53;;;;;;;4.97;1.45;;;12.50;99.90;;;;;;5059753;28;20037;-85
2024/04/06 06:02:19;;;;;;;5.43;1.70;;;12.50;99.90;;;;;;5060305;28;20116;-85
2024/04/06 06:04:44;;;;;;;6.60;1.70;;;12.60;99.90;;;;;;5060854;28;20067;-85
2024/04/06 06:07:10;;;;;;;4.70;1.75;;;12.70;99.90;;;;;;5056931;28;20064;-85
2024/04/06 06:09:36;;;;;;;3.97;1.40;;;12.80;99.90;;;;;;5056740;28;20060;-86
2024/04/06 06:12:02;;;;;;;3.38;1.35;;;12.80;99.90;;;;;;5056222;28;20103;-85
2024/04/06 06:14:28;;;;;;;3.08;1.48;;;12.90;99.90;;;;;;5058084;28;20040;-85
2024/04/06 06:16:55;;;;;;;7.05;1.50;;;13.10;99.90;;;;;;5054826;28;20096;-85
2024/04/06 06:19:20;;;;;;;4.65;1.40;;;13.20;99.90;;;;;;5055517;28;20029;-85
2024/04/06 06:21:46;;;;;;;3.70;1.67;;;13.30;99.90;;;;;;5057568;28;20029;-85
2024/04/06 06:24:11;;;;;;;2.65;1.30;;;13.40;99.90;;;;;;5052482;28;20782;-85
2024/04/06 06:26:37;;;;;;;3.65;1.50;;;13.60;99.90;;;;;;5052813;28;20029;-85
2024/04/06 06:29:02;;;;;;;4.00;1.98;;;13.70;99.90;;;;;;5055345;28;20523;-86
2024/04/06 06:31:28;;;;;;;3.55;1.50;;;13.90;99.90;;;;;;5053223;28;20040;-86
2024/04/06 06:33:55;;;;;;;3.85;1.30;;;14.00;99.90;;;;;;5053292;28;20032;-85
2024/04/06 06:36:20;;;;;;;2.67;1.20;;;14.10;99.90;;;;;;5052344;28;20032;-85
2024/04/06 06:38:47;;;;;;;4.97;1.45;;;14.30;99.90;;;;;;5051949;28;21569;-85
2024/04/06 06:41:13;;;;;;;3.70;1.42;;;14.40;99.90;;;;;;5053815;28;20029;-86
2024/04/06 06:43:39;;;;;;;4.85;1.60;;;14.50;99.90;;;;;;5053494;28;20025;-87
2024/04/06 06:46:04;;;;;;;4.10;1.40;;;14.60;99.90;;;;;;5051928;28;20043;-85
2024/04/06 06:48:30;;;;;;;3.35;1.20;;;14.70;99.90;;;;;;5052746;28;20040;-82
2024/04/06 06:50:55;;;;;;;2.58;1.17;;;14.80;99.90;;;;;;5054054;28;20043;-81
2024/04/06 06:53:21;;;;;;;6.40;1.65;;;14.90;99.90;;;;;;5056210;28;20103;-82
2024/04/06 06:55:47;;;;;;;6.68;1.40;;;15.10;99.90;;;;;;5054457;28;20028;-81
2024/04/06 06:58:12;;;;;;;3.20;1.50;;;15.20;99.90;;;;;;5056655;28;20028;-82
2024/04/06 07:00:38;;;;;;;4.45;2.67;;;15.30;99.90;;;;;;5055997;28;20024;-82
2024/04/06 07:03:04;;;;;;;10.70;1.80;;;15.40;99.90;;;;;;5056540;28;20078;-81
2024/04/06 07:05:29;;;;;;;2.53;1.33;;;15.50;99.90;;;;;;5056697;28;21464;-82
2024/04/06 07:07:58;;;;;;;3.22;1.20;;;15.60;99.90;;;;;;5055419;28;20056;-83
2024/04/06 07:10:24;;;;;;;3.67;1.20;;;15.70;99.90;;;;;;5054210;28;20025;-82
2024/04/06 07:12:49;;;;;;;2.55;1.20;;;15.80;99.90;;;;;;5053752;28;20564;-74
2024/04/06 07:15:15;;;;;;;1.95;1.20;;;15.80;99.90;;;;;;5051838;28;20032;-74
2024/04/06 07:17:40;;;;;;;1.60;1.13;;;15.90;99.90;;;;;;5051482;28;20541;-74
2024/04/06 07:20:06;;;;;;;2.75;1.20;;;16.10;99.90;;;;;;5051346;28;20037;-74
2024/04/06 07:22:32;;;;;;;2.72;1.40;;;16.20;99.90;;;;;;5050720;28;20024;-76
2024/04/06 07:24:57;;;;;;;2.65;1.20;;;16.30;99.90;;;;;;5051620;28;20115;-77
2024/04/06 07:27:23;;;;;;;7.57;1.48;;;16.50;99.90;;;;;;5051125;28;20046;-76
2024/04/06 07:29:48;;;;;;;5.78;1.55;;;16.60;99.90;;;;;;5052042;28;20028;-77
2024/04/06 07:32:14;;;;;;;6.03;1.30;;;16.70;99.90;;;;;;5050400;28;20040;-77
2024/04/06 07:34:39;;;;;;;3.85;1.30;;;16.80;99.90;;;;;;5051560;28;20036;-78
2024/04/06 07:37:05;;;;;;;5.07;1.42;;;16.90;99.90;;;;;;5057903;28;20051;-80
2024/04/06 07:39:31;;;;;;;3.53;1.25;;;17.10;99.90;;;;;;5057681;28;20109;-86
2024/04/06 07:41:56;;;;;;;2.35;1.20;;;17.20;99.90;;;;;;5058816;28;20454;-85
2024/04/06 07:44:22;;;;;;;6.32;1.38;;;17.30;99.90;;;;;;5056859;28;20467;-80
2024/04/06 07:46:47;;;;;;;2.78;1.30;;;17.40;99.90;;;;;;5056772;28;20473;-78
2024/04/06 07:49:13;;;;;;;3.35;1.42;;;17.50;99.90;;;;;;5054671;28;20449;-79
2024/04/06 07:51:41;;;;;;;2.67;1.23;;;17.70;99.90;;;;;;5057294;28;20013;-81
2024/04/06 07:54:07;;;;;;;2.58;1.25;;;17.80;99.90;;;;;;5056282;28;20499;-80
2024/04/06 07:56:33;;;;;;;1.73;1.00;;;17.90;99.90;;;;;;5055684;28;20072;-80
2024/04/06 07:58:58;;;;;;;4.38;1.38;;;18.10;99.90;;;;;;5055264;28;21517;-79
2024/04/06 08:01:24;;;;;;;2.53;1.17;;;18.20;99.90;;;;;;5050898;28;20841;-81
2024/04/06 08:03:50;;;;;;;2.33;1.10;;;18.40;99.90;;;;;;5051880;28;20125;-80
2024/04/06 08:06:17;;;;;;;2.90;1.20;;;18.50;99.90;;;;;;5052937;28;20083;-78
2024/04/06 08:08:44;;;;;;;2.92;1.33;;;18.60;99.90;;;;;;5054193;28;20107;-79
2024/04/06 08:11:09;;;;;;;2.30;1.13;;;18.70;99.90;;;;;;5053572;28;20097;-77
2024/04/06 08:13:35;;;;;;;2.30;1.35;;;18.70;99.90;;;;;;5052641;28;20683;-80
2024/04/06 08:16:00;;;;;;;2.55;1.40;;;18.80;99.90;;;;;;5052000;28;20737;-80
2024/04/06 08:18:26;;;;;;;5.53;1.50;;;18.90;99.90;;;;;;5052082;28;20032;-78
2024/04/06 08:20:52;;;;;;;2.28;1.25;;;19.00;99.90;;;;;;5054154;28;20241;-78
2024/04/06 08:23:18;;;;;;;3.58;1.40;;;19.10;99.90;;;;;;5052202;28;20033;-79
2024/04/06 08:25:45;;;;;;;2.30;1.30;;;19.20;99.90;;;;;;5053842;28;20020;-78
2024/04/06 08:28:11;;;;;;;2.88;1.45;;;19.30;99.90;;;;;;5054341;28;20037;-82
2024/04/06 08:30:38;;;;;;;3.33;1.20;;;19.40;99.90;;;;;;5058185;28;20862;-79
2024/04/06 08:33:05;;;;;;;2.35;1.20;;;19.50;99.90;;;;;;5054390;28;20159;-78
2024/04/06 08:35:33;;;;;;;2.88;1.33;;;19.70;99.90;;;;;;5056037;28;20840;-80
2024/04/06 08:37:59;;;;;;;3.60;1.33;;;19.80;99.90;;;;;;5055514;28;20081;-79
2024/04/06 08:40:25;;;;;;;4.38;1.80;;;20.00;99.90;;;;;;5056426;28;20025;-79
2024/04/06 08:42:50;;;;;;;2.85;1.08;;;20.10;99.90;;;;;;5055000;28;20056;-79
2024/04/06 08:45:18;;;;;;;5.13;1.20;;;20.20;99.90;;;;;;5052988;28;20064;-79
2024/04/06 08:47:43;;;;;;;5.30;1.60;;;20.30;99.90;;;;;;5054252;28;20088;-77
2024/04/06 08:50:10;;;;;;;3.13;1.27;;;20.40;99.90;;;;;;5053928;28;20033;-80
2024/04/06 08:52:37;;;;;;;3.95;1.25;;;20.40;99.90;;;;;;5054938;28;20028;-79
2024/04/06 08:55:03;;;;;;;2.28;1.30;;;20.60;99.90;;;;;;5054678;28;20951;-79
2024/04/06 08:57:37;;;;;;;3.33;1.40;;;20.70;99.90;;;;;;5054235;28;20086;-74
2024/04/06 09:00:07;;;;;;;6.07;1.45;;;20.80;99.90;;;;;;5054537;28;20021;-73
2024/04/06 09:02:35;;;;;;;2.75;1.15;;;20.90;99.90;;;;;;5054038;28;20028;-71
2024/04/06 09:05:01;;;;;;;5.25;1.40;;;21.00;99.90;;;;;;5053838;28;20103;-78
2024/04/06 09:07:27;;;;;;;3.47;1.20;;;21.20;99.90;;;;;;5053534;28;20029;-78
2024/04/06 09:09:54;;;;;;;2.75;1.30;;;21.30;99.90;;;;;;5055131;28;20858;-79
2024/04/06 09:12:19;;;;;;;5.15;1.30;;;21.50;99.90;;;;;;5054480;28;20035;-77
2024/04/06 09:14:46;;;;;;;4.85;1.20;;;21.70;99.90;;;;;;5057142;28;20373;-77
2024/04/06 09:17:14;;;;;;;4.15;1.30;;;21.90;99.90;;;;;;5055953;28;20020;-85
2024/04/06 09:19:40;;;;;;;4.38;1.48;;;22.10;99.90;;;;;;5056949;28;20028;-82
2024/04/06 09:22:05;;;;;;;3.58;1.30;;;22.30;99.90;;;;;;5059548;28;20058;-87
2024/04/06 09:24:32;;;;;;;3.28;1.30;;;22.40;99.90;;;;;;5059534;28;20756;-87
2024/04/06 09:27:11;;;;;;;2.22;1.17;;;22.80;99.90;;;;;;5060070;28;20146;-86
2024/04/06 09:29:37;;;;;;;2.80;1.40;;;22.90;99.90;;;;;;5062522;28;20225;-88
2024/04/06 09:32:07;;;;;;;2.58;1.50;;;23.00;99.90;;;;;;5060256;28;20023;-87
2024/04/06 09:34:36;;;;;;;2.53;1.25;;;23.20;99.90;;;;;;5061761;28;20033;-88
2024/04/06 09:37:03;;;;;;;3.65;1.20;;;23.30;99.90;;;;;;5061207;28;20027;-87
2024/04/06 09:39:33;;;;;;;2.63;1.30;;;23.40;99.90;;;;;;5057451;28;20021;-88
2024/04/06 09:42:01;;;;;;;3.45;1.25;;;23.40;99.90;;;;;;5060829;28;20056;-87
2024/04/06 09:44:27;;;;;;;2.33;1.17;;;23.40;99.90;;;;;;5059502;28;20075;-87
2024/04/06 09:46:53;;;;;;;4.50;1.58;;;23.50;99.90;;;;;;5059544;28;20025;-88
2024/04/06 09:49:22;;;;;;;2.47;1.10;;;23.60;99.90;;;;;;5059966;28;20025;-87
2024/04/06 09:51:48;;;;;;;2.53;1.10;;;23.70;99.90;;;;;;5060799;28;20040;-87
2024/04/06 09:54:14;;;;;;;4.15;1.33;;;23.90;99.90;;;;;;5060517;28;20431;-87
2024/04/06 09:56:39;;;;;;;2.60;1.10;;;23.80;99.90;;;;;;5060057;28;20047;-88
2024/04/06 09:59:05;;;;;;;1.88;1.05;;;23.80;99.90;;;;;;5060588;28;20042;-87
2024/04/06 10:01:30;;;;;;;3.40;1.30;;;23.90;99.90;;;;;;5060311;28;20017;-87
2024/04/06 10:03:56;;;;;;;3.42;1.42;;;24.10;99.90;;;;;;5059375;28;20028;-88
2024/04/06 10:06:22;;;;;;;2.08;1.00;;;24.20;99.90;;;;;;5059516;28;20033;-88
2024/04/06 10:08:49;;;;;;;4.13;1.10;;;24.40;99.90;;;;;;5060749;28;20050;-87
2024/04/06 10:11:24;;;;;;;5.55;1.65;;;24.40;99.90;;;;;;5059742;28;20052;-87
2024/04/06 10:14:00;;;;;;;2.80;1.00;;;24.40;99.90;;;;;;5058594;28;20027;-88
2024/04/06 10:16:26;;;;;;;2.20;1.20;;;24.50;99.90;;;;;;5058375;28;20056;-87
2024/04/06 10:18:54;;;;;;;2.80;1.30;;;24.60;99.90;;;;;;5059683;28;20098;-87
2024/04/06 10:21:20;;;;;;;1.67;1.10;;;24.60;99.90;;;;;;5061117;28;20020;-87
2024/04/06 10:23:46;;;;;;;2.40;1.35;;;24.70;99.90;;;;;;5058901;28;20693;-88
2024/04/06 10:26:16;;;;;;;2.10;1.00;;;24.80;99.90;;;;;;5058606;28;20174;-88
2024/04/06 10:28:45;;;;;;;2.55;1.10;;;24.80;99.90;;;;;;5058853;28;20024;-88
2024/04/06 10:31:10;;;;;;;3.10;1.00;;;24.80;99.90;;;;;;5060434;28;20062;-87
2024/04/06 10:33:39;;;;;;;3.38;1.30;;;24.80;99.50;;;;;;5059333;28;20053;-88
2024/04/06 10:36:12;;;;;;;4.13;1.35;;;24.80;99.90;;;;;;5058720;28;20041;-87
2024/04/06 10:38:39;;;;;;;;;;;24.90;99.40;;;;;;5059982;28;20452;-87
2024/04/06 10:41:08;;;;;;;2.95;1.08;;;25.00;99.90;;;;;;5059601;28;20005;-88
2024/04/06 10:43:35;;;;;;;1.90;1.10;;;25.20;98.60;;;;;;5059665;28;20103;-88
2024/04/06 10:46:04;;;;;;;2.33;1.10;;;25.20;98.60;;;;;;5058348;28;20078;-88
2024/04/06 10:48:30;;;;;;;3.50;1.00;;;25.40;99.10;;;;;;5058412;28;20016;-89
2024/04/06 10:50:58;;;;;;;2.72;1.25;;;25.50;98.10;;;;;;5059834;28;20028;-89
2024/04/06 10:53:25;;;;;;;3.47;1.25;;;25.70;97.60;;;;;;5058718;28;20029;-87
2024/04/06 10:55:52;;;;;;;2.38;1.30;;;25.70;97.20;;;;;;5058415;28;20470;-88
2024/04/06 10:58:18;;;;;;;8.35;1.50;;;25.70;98.50;;;;;;5057137;28;20045;-87
2024/04/06 11:00:43;;;;;;;1.45;0.90;;;25.70;98.80;;;;;;5057113;28;20110;-88
2024/04/06 11:03:09;;;;;;;3.25;1.10;;;26.10;97.30;;;;;;5057356;28;20025;-86
2024/04/06 11:05:35;;;;;;;3.28;1.20;;;26.40;96.60;;;;;;5054092;28;20036;-89
2024/04/06 11:08:03;;;;;;;2.13;1.20;;;26.20;96.60;;;;;;5053715;28;20020;-86
2024/04/06 11:10:29;;;;;;;1.85;0.93;;;26.20;96.10;;;;;;5053434;28;20054;-85
2024/04/06 11:12:57;;;;;;;3.80;1.10;;;26.30;96.50;;;;;;5054562;28;20705;-86
2024/04/06 11:15:24;;;;;;;2.10;1.27;;;26.20;95.40;;;;;;5052751;28;20089;-86
2024/04/06 11:17:51;;;;;;;3.03;1.20;;;26.30;95.90;;;;;;5055437;28;20025;-87
2024/04/06 11:20:17;;;;;;;2.72;1.00;;;26.20;95.00;;;;;;5055906;28;20412;-86
2024/04/06 11:22:42;;;;;;;1.52;0.95;;;26.20;94.50;;;;;;5055849;28;19912;-86
2024/04/06 11:25:19;;;;;;;2.30;1.38;;;26.20;94.00;;;;;;5056128;28;20021;-87
2024/04/06 11:27:52;;;;;;;3.63;1.33;;;26.20;93.10;;;;;;5057723;28;20025;-86
2024/04/06 11:30:19;;;;;;;2.00;0.90;;;26.20;93.10;;;;;;5058647;28;20029;-88
2024/04/06 11:32:48;;;;;;;1.60;0.90;;;26.20;94.20;;;;;;5055231;28;20044;-87
2024/04/06 11:35:14;;;;;;;2.03;1.00;;;26.50;93.20;;;;;;5054757;28;20021;-88
2024/04/06 11:37:39;;;;;;;3.97;1.00;;;26.80;90.90;;;;;;5056366;28;20036;-86
2024/04/06 11:40:05;;;;;;;4.10;1.27;;;26.90;90.40;;;;;;5057814;28;21482;-87
2024/04/06 11:42:33;;;;;;;1.35;0.90;;;26.90;88.90;;;;;;5057740;28;20021;-87
2024/04/06 11:44:59;;;;;;;2.85;0.93;;;27.00;89.00;;;;;;5055753;28;20025;-86
2024/04/06 11:47:25;;;;;;;2.22;1.00;;;26.90;90.10;;;;;;5055329;28;20130;-87
2024/04/06 11:49:51;;;;;;;2.83;1.00;;;27.00;89.20;;;;;;5053720;28;20021;-86
2024/04/06 11:52:16;;;;;;;3.40;1.15;;;26.90;84.40;;;;;;5053436;28;20082;-78
2024/04/06 11:54:42;;;;;;;1.55;1.00;;;27.10;83.60;;;;;;5051527;28;20032;-78
2024/04/06 11:57:08;;;;;;;2.17;0.80;;;27.30;84.60;;;;;;5051104;28;20040;-78
2024/04/06 11:59:34;;;;;;;2.05;0.98;;;27.50;79.50;;;;;;5051874;28;20595;-78
2024/04/06 12:02:00;;;;;;;2.50;1.10;;;27.50;77.90;;;;;;5053166;28;20159;-78
2024/04/06 12:04:25;;;;;;;1.50;1.00;;;27.60;77.40;;;;;;5051984;28;20504;-78
2024/04/06 12:06:52;;;;;;;2.20;0.90;;;27.70;79.50;;;;;;5051018;28;20183;-78
2024/04/06 12:09:19;;;;;;;2.10;1.10;;;28.00;79.20;;;;;;5051442;28;20028;-78
2024/04/06 12:11:44;;;;;;;1.15;0.80;;;28.20;76.20;;;;;;5051974;28;20116;-77
2024/04/06 12:14:10;;;;;;;2.05;1.02;;;28.10;76.60;;;;;;5051023;28;20489;-78
2024/04/06 12:16:36;;;;;;;1.65;0.90;;;28.10;74.80;;;;;;5051647;28;20091;-79
2024/04/06 12:19:01;;;;;;;1.33;0.90;;;28.10;75.00;;;;;;5051369;28;20032;-78
2024/04/06 12:21:27;;;;;;;1.42;0.80;;;28.00;75.20;;;;;;5054035;28;20111;-78
2024/04/06 12:23:53;;;;;;;1.45;1.00;;;28.10;72.50;;;;;;5054395;28;20032;-78
2024/04/06 12:26:19;;;;;;;3.97;0.90;;;28.00;72.00;;;;;;5053814;28;20028;-78
2024/04/06 12:28:45;;;;;;;2.80;1.17;;;28.00;74.10;;;;;;5055510;28;21286;-78
2024/04/06 12:31:10;;;;;;;2.78;1.05;;;28.00;73.60;;;;;;5054730;28;20142;-78
2024/04/06 12:33:36;;;;;;;1.35;0.93;;;28.00;73.30;;;;;;5056069;28;20020;-78
2024/04/06 12:36:03;;;;;;;2.22;0.80;;;28.10;73.60;;;;;;5053916;28;20025;-78
2024/04/06 12:38:29;;;;;;;1.42;0.85;;;28.20;73.40;;;;;;5054951;28;20040;-78
2024/04/06 12:40:55;;;;;;;2.00;0.90;;;28.10;75.50;;;;;;5054613;28;20611;-78
2024/04/06 12:43:21;;;;;;;3.72;1.00;;;27.90;73.70;;;;;;5055237;28;20090;-78